Time;durP1;ratioP1;P1;durP2;ratioP2;P2;SDS_P1;SDS_P2;PMS_P1;PMS_P2;Temp;Humidity;BMP_temperature;BMP_pressure;BME280_temperature;BME280_humidity;BME280_pressure;Samples;Min_cycle;Max_cycle;Signal;HPM_P1;HPM_P2
2022/08/15 04:07:04;;;;;;;3.60;3.20;;;21.50;99.90;;;;;;4991367;28;20473;-69
2022/08/15 04:09:30;;;;;;;2.77;2.57;;;21.50;99.90;;;;;;4994689;28;20415;-68
2022/08/15 04:11:57;;;;;;;6.10;2.57;;;21.50;99.90;;;;;;4994210;28;20457;-69
2022/08/15 04:14:23;;;;;;;3.67;2.40;;;21.50;99.90;;;;;;4982785;28;20431;-67
2022/08/15 04:16:48;;;;;;;2.87;2.43;;;21.50;99.90;;;;;;4975004;28;20408;-68
2022/08/15 04:19:15;;;;;;;2.90;2.70;;;21.50;99.90;;;;;;4974434;28;20179;-68
2022/08/15 04:21:42;;;;;;;2.70;2.53;;;21.50;99.90;;;;;;4974319;28;20168;-68
2022/08/15 04:24:08;;;;;;;1.97;1.87;;;21.50;99.90;;;;;;4974269;28;20478;-68
2022/08/15 04:26:34;;;;;;;2.70;2.50;;;21.40;99.90;;;;;;4974913;28;20497;-68
2022/08/15 04:29:01;;;;;;;3.23;2.93;;;21.40;99.90;;;;;;4974526;28;20411;-68
2022/08/15 04:31:27;;;;;;;2.80;2.60;;;21.40;99.90;;;;;;4974926;28;20779;-69
2022/08/15 04:33:52;;;;;;;4.50;3.13;;;21.40;99.90;;;;;;4973190;28;20450;-68
2022/08/15 04:36:20;;;;;;;2.33;2.20;;;21.40;99.90;;;;;;4974904;28;20415;-68
2022/08/15 04:38:47;;;;;;;2.20;2.10;;;21.40;99.90;;;;;;4974606;28;20168;-67
2022/08/15 04:41:13;;;;;;;3.73;2.37;;;21.40;99.90;;;;;;4974637;28;20937;-68
2022/08/15 04:43:41;;;;;;;2.27;2.17;;;21.40;99.90;;;;;;4974038;28;20455;-68
2022/08/15 04:46:07;;;;;;;2.70;2.50;;;21.40;99.90;;;;;;4974681;28;20451;-69
2022/08/15 04:48:33;;;;;;;2.73;2.10;;;21.30;99.90;;;;;;4974730;28;20738;-66
2022/08/15 04:51:01;;;;;;;3.20;2.90;;;21.30;99.90;;;;;;4974685;28;20435;-68
2022/08/15 04:53:30;;;;;;;3.07;2.17;;;21.30;99.90;;;;;;4974158;28;20242;-67
2022/08/15 04:55:57;;;;;;;3.80;2.03;;;21.30;99.90;;;;;;4974495;28;20408;-68
2022/08/15 04:58:23;;;;;;;2.10;2.00;;;21.30;99.90;;;;;;4974722;28;20404;-69
2022/08/15 05:00:59;;;;;;;5.20;2.23;;;21.30;99.90;;;;;;4974568;28;20396;-68
2022/08/15 05:03:25;;;;;;;2.80;2.30;;;21.30;99.90;;;;;;4972393;28;20454;-68
2022/08/15 05:05:58;;;;;;;2.17;2.00;;;21.30;99.90;;;;;;4972058;28;20917;-69
2022/08/15 05:08:25;;;;;;;1.60;1.50;;;21.30;99.90;;;;;;4974599;28;20400;-67
2022/08/15 05:11:15;;;;;;;2.40;2.10;;;21.30;99.90;;;;;;4974535;28;20411;-65
2022/08/15 05:13:42;;;;;;;2.83;2.43;;;21.30;99.90;;;;;;4972779;28;20483;-67
2022/08/15 05:16:09;;;;;;;2.80;2.43;;;21.30;99.90;;;;;;4974213;28;20434;-65
2022/08/15 05:18:37;;;;;;;2.27;2.07;;;21.30;99.90;;;;;;4974000;28;20418;-65
2022/08/15 05:21:04;;;;;;;2.07;1.97;;;21.30;99.90;;;;;;4973293;28;20478;-67
2022/08/15 05:23:31;;;;;;;2.20;2.00;;;21.30;99.90;;;;;;4973888;28;20513;-67
2022/08/15 05:25:58;;;;;;;2.60;2.40;;;21.40;99.90;;;;;;4974290;28;20426;-66
2022/08/15 05:28:24;;;;;;;2.77;2.57;;;21.40;99.90;;;;;;4974934;28;20759;-68
2022/08/15 05:30:51;;;;;;;2.30;2.10;;;21.40;99.90;;;;;;4966828;28;20462;-65
2022/08/15 05:33:20;;;;;;;2.60;2.40;;;21.30;99.90;;;;;;4975823;28;20972;-65
2022/08/15 05:35:49;;;;;;;5.90;2.93;;;21.40;99.90;;;;;;4977600;28;20427;-66
2022/08/15 05:38:29;;;;;;;2.30;2.10;;;21.30;99.90;;;;;;4977933;28;20511;-66
2022/08/15 05:40:57;;;;;;;3.27;1.80;;;21.40;99.90;;;;;;4977769;28;20422;-69
2022/08/15 05:43:50;;;;;;;2.93;1.87;;;21.40;99.90;;;;;;4977330;28;20462;-66
2022/08/15 05:46:39;;;;;;;2.23;2.03;;;21.40;99.90;;;;;;4986097;28;20422;-65
2022/08/15 05:49:26;;;;;;;2.73;2.53;;;21.40;99.90;;;;;;4980367;28;20566;-65
2022/08/15 05:52:01;;;;;;;2.40;2.20;;;21.50;99.90;;;;;;4977343;28;20518;-66
2022/08/15 05:54:42;;;;;;;2.13;1.93;;;21.60;99.90;;;;;;4976593;28;20443;-65
2022/08/15 05:57:35;;;;;;;3.00;2.47;;;21.60;99.90;;;;;;4977256;28;20781;-67
2022/08/15 06:00:10;;;;;;;3.53;2.50;;;21.70;99.90;;;;;;4976626;28;20462;-67
2022/08/15 06:02:38;;;;;;;2.20;2.00;;;21.70;99.90;;;;;;4976756;28;20897;-67
2022/08/15 06:05:32;;;;;;;2.63;2.10;;;21.60;99.90;;;;;;4983128;28;20469;-66
2022/08/15 06:08:02;;;;;;;1.87;1.77;;;21.60;99.90;;;;;;4996436;28;20443;-65
2022/08/15 06:10:46;;;;;;;1.87;1.77;;;21.60;99.90;;;;;;4983948;28;20428;-65
2022/08/15 06:13:18;;;;;;;2.43;2.23;;;21.60;99.90;;;;;;4975780;28;20473;-66
2022/08/15 06:15:59;;;;;;;1.93;1.83;;;21.50;99.90;;;;;;4977335;28;20797;-65
2022/08/15 06:18:26;;;;;;;2.27;2.13;;;21.50;99.90;;;;;;4977246;28;20483;-65
2022/08/15 06:21:09;;;;;;;2.63;2.00;;;21.50;99.90;;;;;;4977155;28;20510;-65
2022/08/15 06:23:41;;;;;;;3.10;2.07;;;21.60;99.90;;;;;;4976510;28;20436;-66
2022/08/15 06:26:14;;;;;;;2.10;2.00;;;21.60;99.90;;;;;;4975046;28;20448;-65
2022/08/15 06:29:11;;;;;;;2.03;1.90;;;21.60;99.90;;;;;;4977132;28;20404;-66
2022/08/15 06:31:39;;;;;;;2.20;2.00;;;21.60;99.90;;;;;;4976884;28;20766;-66
2022/08/15 06:34:05;;;;;;;2.33;2.13;;;21.60;99.90;;;;;;4976417;28;20400;-66
2022/08/15 06:36:43;;;;;;;1.53;1.43;;;21.70;99.90;;;;;;4975699;28;20417;-66
2022/08/15 06:39:15;;;;;;;2.20;2.00;;;21.70;99.90;;;;;;4976700;28;20526;-65
2022/08/15 06:42:07;;;;;;;1.93;1.83;;;21.70;99.90;;;;;;4975035;28;20928;-66
2022/08/15 06:44:33;;;;;;;9.33;2.00;;;21.60;99.90;;;;;;4976317;28;20390;-66
2022/08/15 06:47:04;;;;;;;1.77;1.67;;;21.60;99.90;;;;;;4976671;28;20499;-67
2022/08/15 06:49:36;;;;;;;2.00;1.90;;;21.60;99.90;;;;;;4976965;28;20176;-66
2022/08/15 06:52:02;;;;;;;2.27;1.80;;;21.50;99.90;;;;;;4976658;28;20542;-67
2022/08/15 06:54:29;;;;;;;2.17;2.00;;;21.50;99.90;;;;;;4975878;28;20509;-66
2022/08/15 06:57:08;;;;;;;1.40;1.30;;;21.50;99.90;;;;;;4976665;28;20450;-65
2022/08/15 06:59:39;;;;;;;2.03;1.93;;;21.60;99.90;;;;;;4976626;28;20411;-66
2022/08/15 07:02:29;;;;;;;2.70;2.50;;;21.70;99.90;;;;;;4975966;28;20992;-66
2022/08/15 07:05:27;;;;;;;2.03;1.70;;;21.80;99.90;;;;;;4976382;28;20424;-66
2022/08/15 07:08:03;;;;;;;2.30;2.10;;;22.00;99.90;;;;;;4976258;28;20897;-65
2022/08/15 07:10:50;;;;;;;2.90;1.73;;;22.10;99.90;;;;;;4976343;28;20904;-66
2022/08/15 07:13:23;;;;;;;1.87;1.70;;;22.30;99.90;;;;;;4975574;28;20458;-66
2022/08/15 07:16:01;;;;;;;1.77;1.67;;;22.50;99.90;;;;;;4976227;28;20560;-66
2022/08/15 07:18:40;;;;;;;2.53;2.20;;;22.80;99.50;;;;;;4976366;28;20452;-67
2022/08/15 07:21:17;;;;;;;2.43;2.27;;;23.00;98.70;;;;;;4976262;28;20857;-65
2022/08/15 07:24:08;;;;;;;2.20;2.10;;;23.30;98.00;;;;;;4975479;28;20454;-67
2022/08/15 07:26:55;;;;;;;4.60;1.70;;;23.70;96.70;;;;;;4976175;28;20435;-67
2022/08/15 07:29:55;;;;;;;1.47;1.37;;;24.00;95.40;;;;;;4974949;28;20423;-66
2022/08/15 07:32:20;;;;;;;6.30;2.03;;;24.20;94.40;;;;;;4975651;28;20455;-67
2022/08/15 07:35:21;;;;;;;4.30;2.30;;;24.40;93.90;;;;;;4975862;28;20497;-66
2022/08/15 07:37:46;;;;;;;2.70;2.33;;;24.50;93.30;;;;;;4975128;28;20614;-66
2022/08/15 07:40:20;;;;;;;1.80;1.70;;;24.60;93.20;;;;;;4974223;28;20486;-66
2022/08/15 07:42:46;;;;;;;1.80;1.70;;;24.80;93.10;;;;;;4975071;28;20196;-65
2022/08/15 07:45:36;;;;;;;1.60;1.50;;;25.10;92.40;;;;;;4975575;28;20423;-67
2022/08/15 07:48:22;;;;;;;3.43;1.63;;;25.60;91.50;;;;;;4974643;28;20186;-66
2022/08/15 07:51:05;;;;;;;2.00;1.90;;;26.80;90.20;;;;;;4975198;28;20510;-66
2022/08/15 07:53:31;;;;;;;2.50;1.80;;;28.30;85.00;;;;;;4974203;28;20449;-66
2022/08/15 07:56:10;;;;;;;1.67;1.57;;;29.60;79.10;;;;;;4975474;28;20393;-66
2022/08/15 07:58:36;;;;;;;1.67;1.57;;;30.80;75.10;;;;;;4975072;28;20501;-67
2022/08/15 08:01:24;;;;;;;2.77;1.90;;;31.40;69.90;;;;;;4975277;28;20477;-65
2022/08/15 08:04:05;;;;;;;2.03;1.40;;;31.40;67.90;;;;;;4974962;28;20258;-66
2022/08/15 08:06:48;;;;;;;1.73;1.63;;;31.40;67.00;;;;;;4974567;28;20447;-66
2022/08/15 08:09:24;;;;;;;1.60;1.50;;;31.80;66.10;;;;;;4975216;28;20465;-65
2022/08/15 08:12:10;;;;;;;1.90;1.80;;;32.30;63.90;;;;;;4975170;28;20382;-67
2022/08/15 08:14:39;;;;;;;2.00;1.80;;;32.20;63.00;;;;;;4974655;28;20839;-65
2022/08/15 08:17:14;;;;;;;1.80;1.70;;;31.60;62.30;;;;;;4973383;28;20431;-67
2022/08/15 08:19:54;;;;;;;1.67;1.57;;;31.60;64.40;;;;;;4975079;28;20450;-66
2022/08/15 08:22:42;;;;;;;1.63;1.53;;;32.30;62.30;;;;;;4974613;28;20834;-66
2022/08/15 08:25:24;;;;;;;2.00;1.90;;;33.30;59.50;;;;;;4974817;28;20952;-66
2022/08/15 08:28:02;;;;;;;1.93;1.67;;;34.10;59.40;;;;;;4974460;28;20440;-65
2022/08/15 08:30:48;;;;;;;1.60;1.50;;;34.40;57.00;;;;;;4975046;28;20502;-66
2022/08/15 08:33:40;;;;;;;1.60;1.50;;;34.00;57.20;;;;;;4974320;28;20459;-67
2022/08/15 08:36:33;;;;;;;1.97;1.87;;;33.50;58.20;;;;;;4951994;28;20492;-65
2022/08/15 08:39:34;;;;;;;2.70;1.67;;;33.00;58.50;;;;;;4974949;28;20407;-66
2022/08/15 08:42:21;;;;;;;1.40;1.33;;;32.60;59.30;;;;;;4966850;28;20502;-66
2022/08/15 08:45:08;;;;;;;1.90;1.80;;;32.70;59.10;;;;;;4974414;28;20753;-66
2022/08/15 08:48:17;;;;;;;1.67;1.40;;;33.60;58.00;;;;;;4974846;28;20758;-65
2022/08/15 08:51:21;;;;;;;3.00;1.60;;;34.30;57.30;;;;;;4974661;28;20390;-67
2022/08/15 08:54:12;;;;;;;1.80;1.70;;;35.00;56.10;;;;;;4933123;29;20439;-66
2022/08/15 08:56:46;;;;;;;1.83;1.73;;;35.30;55.50;;;;;;4973987;28;20488;-69
2022/08/15 08:59:35;;;;;;;1.80;1.70;;;35.50;55.30;;;;;;4974775;28;20946;-66
2022/08/15 09:02:14;;;;;;;1.90;1.80;;;35.10;53.90;;;;;;4975064;28;20454;-67
2022/08/15 09:04:45;;;;;;;2.10;2.00;;;34.50;54.40;;;;;;4976605;28;20466;-66
2022/08/15 09:07:19;;;;;;;2.23;1.93;;;34.20;55.20;;;;;;4978356;28;20438;-65
2022/08/15 09:09:47;;;;;;;4.13;1.83;;;34.40;55.10;;;;;;4978672;28;20874;-65
2022/08/15 09:15:18;;;;;;;1.70;1.60;;;35.40;53.80;;;;;;4978622;28;20431;-65
2022/08/15 09:17:49;;;;;;;1.80;1.70;;;35.90;52.90;;;;;;4978490;28;20762;-65
2022/08/15 09:20:24;;;;;;;1.70;1.60;;;36.00;52.60;;;;;;4958913;28;20799;-66
2022/08/15 09:22:50;;;;;;;1.70;1.60;;;35.60;51.90;;;;;;4958703;28;20416;-65
2022/08/15 09:25:16;;;;;;;2.10;2.00;;;35.30;53.70;;;;;;4958797;28;20950;-65
2022/08/15 09:28:01;;;;;;;1.90;1.80;;;35.60;53.40;;;;;;4975598;28;20398;-64
2022/08/15 09:30:28;;;;;;;2.10;2.00;;;34.80;54.30;;;;;;4978124;28;20430;-66
2022/08/15 09:32:56;;;;;;;3.87;2.27;;;33.80;55.80;;;;;;4978097;28;20442;-63
2022/08/15 09:35:32;;;;;;;2.27;2.17;;;33.30;57.20;;;;;;4977886;28;20420;-65
2022/08/15 09:38:19;;;;;;;4.70;1.87;;;33.40;56.80;;;;;;4978111;28;20411;-65
2022/08/15 09:40:49;;;;;;;2.30;2.20;;;33.70;56.90;;;;;;4976619;28;20406;-65
2022/08/15 09:43:36;;;;;;;2.20;2.10;;;34.20;56.80;;;;;;4977437;28;20881;-65
2022/08/15 09:46:36;;;;;;;2.33;2.23;;;34.60;54.90;;;;;;4977706;28;20386;-65
2022/08/15 09:49:40;;;;;;;2.03;1.93;;;34.60;53.80;;;;;;4977883;28;20382;-64
2022/08/15 09:52:23;;;;;;;1.90;1.80;;;34.90;54.30;;;;;;4977001;28;20430;-65
2022/08/15 09:54:54;;;;;;;2.00;1.90;;;34.80;54.10;;;;;;4977247;28;20460;-65
2022/08/15 09:57:20;;;;;;;2.10;2.00;;;34.90;53.60;;;;;;4977690;28;20419;-65
2022/08/15 10:00:00;;;;;;;2.37;2.07;;;35.30;53.60;;;;;;4977648;28;20408;-65
2022/08/15 10:02:32;;;;;;;2.37;2.10;;;35.80;53.20;;;;;;4977336;28;20227;-65
2022/08/15 10:04:57;;;;;;;2.07;1.97;;;36.60;51.90;;;;;;4977271;28;20439;-65
2022/08/15 10:07:45;;;;;;;2.50;2.40;;;37.30;51.20;;;;;;4977150;28;20443;-65
2022/08/15 10:10:19;;;;;;;2.40;2.30;;;37.40;50.30;;;;;;4977543;28;20559;-66
2022/08/15 10:13:24;;;;;;;2.73;2.53;;;37.50;50.10;;;;;;4976995;28;20462;-66
2022/08/15 10:15:50;;;;;;;2.33;2.23;;;37.90;49.60;;;;;;4960589;28;20435;-66
2022/08/15 10:18:21;;;;;;;2.40;2.30;;;37.80;49.40;;;;;;4977377;28;20467;-66
2022/08/15 10:20:49;;;;;;;2.67;2.50;;;38.10;48.80;;;;;;4977309;28;20411;-65
2022/08/15 10:23:15;;;;;;;2.33;2.23;;;37.70;49.20;;;;;;4976925;28;20420;-66
2022/08/15 10:25:45;;;;;;;2.17;2.07;;;37.30;49.20;;;;;;4977268;28;20433;-68
2022/08/15 10:28:11;;;;;;;2.50;2.40;;;37.30;49.40;;;;;;4977138;28;20419;-65
2022/08/15 10:30:44;;;;;;;2.40;2.30;;;37.30;49.50;;;;;;4975272;28;20431;-66
2022/08/15 10:33:33;;;;;;;2.17;2.07;;;37.40;49.50;;;;;;4976661;28;20215;-64
2022/08/15 10:36:16;;;;;;;4.63;2.17;;;37.20;48.80;;;;;;4977138;28;20420;-65
2022/08/15 10:38:49;;;;;;;1.97;1.87;;;36.60;49.40;;;;;;4977128;28;20416;-65
2022/08/15 10:41:26;;;;;;;1.93;1.83;;;36.00;49.80;;;;;;4976563;28;20431;-64
2022/08/15 10:44:27;;;;;;;2.33;2.23;;;35.50;50.20;;;;;;4976587;28;20467;-65
2022/08/15 10:47:06;;;;;;;2.30;2.20;;;35.20;50.90;;;;;;4974670;28;20420;-66
2022/08/15 10:49:54;;;;;;;1.90;1.80;;;35.10;52.00;;;;;;4976570;28;20422;-64
2022/08/15 10:52:37;;;;;;;2.20;2.00;;;35.20;51.20;;;;;;4976469;28;20559;-65
2022/08/15 10:55:29;;;;;;;2.40;2.20;;;35.10;52.00;;;;;;4976594;28;20443;-65
2022/08/15 10:58:22;;;;;;;2.47;2.37;;;35.50;51.80;;;;;;4976297;28;20538;-65
2022/08/15 11:00:57;;;;;;;2.37;2.27;;;35.70;51.10;;;;;;4976585;28;20456;-65
2022/08/15 11:03:34;;;;;;;2.90;2.37;;;35.90;50.60;;;;;;4975944;28;20459;-65
2022/08/15 11:06:08;;;;;;;3.30;2.00;;;35.80;50.10;;;;;;4976224;28;20574;-65
2022/08/15 11:08:42;;;;;;;2.20;2.10;;;35.70;50.30;;;;;;4976626;28;20420;-66
2022/08/15 11:11:10;;;;;;;2.33;2.20;;;35.30;50.50;;;;;;4957185;28;20396;-64
2022/08/15 11:13:37;;;;;;;3.10;2.40;;;35.20;51.20;;;;;;4956630;28;20468;-66
2022/08/15 11:16:16;;;;;;;2.30;2.20;;;35.10;51.20;;;;;;4956771;28;20417;-64
2022/08/15 11:18:50;;;;;;;2.60;2.40;;;34.50;51.10;;;;;;4956963;28;20412;-65
2022/08/15 11:21:26;;;;;;;2.90;2.10;;;33.60;52.60;;;;;;4956920;28;20416;-64
2022/08/15 11:24:07;;;;;;;2.10;2.00;;;32.70;53.80;;;;;;4961723;28;20425;-66
2022/08/15 11:26:36;;;;;;;2.00;1.90;;;32.10;54.50;;;;;;4976023;28;20733;-64
2022/08/15 11:29:24;;;;;;;1.87;1.77;;;31.50;54.90;;;;;;4976017;28;20872;-64
2022/08/15 11:31:51;;;;;;;2.10;2.00;;;30.90;56.10;;;;;;4976002;28;20419;-65
2022/08/15 11:34:23;;;;;;;2.00;1.90;;;30.60;56.80;;;;;;4975406;28;20415;-66
2022/08/15 11:36:51;;;;;;;2.20;2.10;;;30.30;57.90;;;;;;4975566;28;20860;-65
2022/08/15 11:39:19;;;;;;;1.93;1.83;;;30.30;57.80;;;;;;4975914;28;20386;-62
2022/08/15 11:41:56;;;;;;;1.80;1.70;;;30.10;58.80;;;;;;4975519;28;20841;-64
2022/08/15 11:44:34;;;;;;;1.33;1.33;;;29.80;57.80;;;;;;4975314;28;20426;-63
2022/08/15 11:47:00;;;;;;;1.70;1.60;;;29.50;58.50;;;;;;4975705;28;20466;-64
2022/08/15 11:49:31;;;;;;;1.70;1.60;;;29.40;58.70;;;;;;4975601;28;20898;-65
2022/08/15 11:52:06;;;;;;;1.97;1.87;;;29.30;58.70;;;;;;4975047;28;20406;-65
2022/08/15 11:54:32;;;;;;;1.80;1.70;;;29.30;58.60;;;;;;4975033;28;20927;-64
2022/08/15 11:57:01;;;;;;;2.17;2.07;;;29.10;58.50;;;;;;4975571;28;20459;-64
2022/08/15 11:59:39;;;;;;;9.10;2.50;;;29.00;59.70;;;;;;4975383;28;20226;-65
2022/08/15 12:02:14;;;;;;;4.17;3.77;;;29.10;59.40;;;;;;4975372;28;20898;-66
2022/08/15 12:04:46;;;;;;;3.17;2.87;;;29.10;59.10;;;;;;4974793;28;20442;-66
2022/08/15 12:07:28;;;;;;;2.60;2.40;;;29.20;58.90;;;;;;4975152;28;20430;-67
2022/08/15 12:10:04;;;;;;;1.83;1.70;;;29.20;58.10;;;;;;4973922;28;20423;-66
2022/08/15 12:12:40;;;;;;;2.23;2.13;;;29.10;59.00;;;;;;4973923;28;20498;-65
2022/08/15 12:15:31;;;;;;;1.97;1.87;;;29.00;59.60;;;;;;4974798;28;20413;-66
2022/08/15 12:18:22;;;;;;;1.93;1.80;;;29.00;59.90;;;;;;4975048;28;20464;-65
2022/08/15 12:20:59;;;;;;;1.57;1.50;;;29.10;59.60;;;;;;4970260;28;20423;-64
2022/08/15 12:23:35;;;;;;;2.10;2.00;;;29.20;59.50;;;;;;4974541;28;20445;-66
2022/08/15 12:26:07;;;;;;;1.87;1.77;;;29.20;58.20;;;;;;4974938;28;20437;-64
2022/08/15 12:28:35;;;;;;;2.47;2.27;;;29.20;58.60;;;;;;4975074;28;20405;-65
2022/08/15 12:31:09;;;;;;;1.53;1.43;;;29.10;58.00;;;;;;4974936;28;20449;-65
2022/08/15 12:33:34;;;;;;;1.67;1.57;;;29.00;58.30;;;;;;4974296;28;20982;-66
2022/08/15 12:36:02;;;;;;;1.57;1.57;;;29.00;58.50;;;;;;4974214;28;20429;-65
2022/08/15 12:38:29;;;;;;;2.13;2.03;;;28.90;58.60;;;;;;4973242;28;20642;-64
2022/08/15 12:40:55;;;;;;;1.60;1.50;;;28.90;59.50;;;;;;4989379;28;20478;-64
2022/08/15 12:43:20;;;;;;;2.10;2.00;;;28.90;59.10;;;;;;4973875;28;20482;-70
2022/08/15 12:45:46;;;;;;;2.17;2.07;;;28.90;59.60;;;;;;4974610;28;20204;-64
2022/08/15 12:48:22;;;;;;;2.03;1.93;;;29.00;59.60;;;;;;4974471;28;20226;-66
2022/08/15 12:50:48;;;;;;;2.20;2.10;;;29.20;58.90;;;;;;4975076;28;20182;-65
2022/08/15 12:53:14;;;;;;;1.73;1.63;;;29.30;58.30;;;;;;4973934;28;20497;-66
2022/08/15 12:55:42;;;;;;;2.13;2.00;;;29.50;57.90;;;;;;4974530;28;20239;-66
2022/08/15 12:58:09;;;;;;;1.87;1.77;;;29.70;57.60;;;;;;4973047;28;20176;-66
2022/08/15 13:00:36;;;;;;;2.37;2.27;;;29.90;57.10;;;;;;4974326;28;20446;-65
2022/08/15 13:03:15;;;;;;;2.13;1.93;;;30.00;57.00;;;;;;4973656;28;20507;-65
2022/08/15 13:05:42;;;;;;;1.93;1.50;;;30.00;55.30;;;;;;4974414;28;20449;-66
2022/08/15 13:08:07;;;;;;;2.30;2.10;;;29.90;55.90;;;;;;4973944;28;20409;-65
2022/08/15 13:10:33;;;;;;;1.97;1.87;;;29.90;55.80;;;;;;4974345;28;20390;-65
2022/08/15 13:12:59;;;;;;;2.07;1.93;;;29.70;56.10;;;;;;4973651;28;20263;-65
2022/08/15 13:15:24;;;;;;;2.00;1.90;;;29.40;56.80;;;;;;4973714;28;20172;-65
2022/08/15 13:17:50;;;;;;;2.53;2.33;;;29.30;57.40;;;;;;4974503;28;20226;-65
2022/08/15 13:25:44;;;;;;;2.30;2.20;;;29.30;57.40;;;;;;4955009;29;20414;-64
2022/08/15 13:28:09;;;;;;;2.23;2.13;;;29.40;57.70;;;;;;4956122;28;20881;-65
2022/08/15 13:30:36;;;;;;;2.90;2.30;;;29.40;56.70;;;;;;4974257;28;20196;-65
2022/08/15 13:33:03;;;;;;;2.30;2.13;;;29.50;57.00;;;;;;4973768;28;20571;-65
2022/08/15 13:35:29;;;;;;;1.80;1.70;;;29.50;57.60;;;;;;4974319;28;20436;-64
2022/08/15 13:37:54;;;;;;;2.20;2.10;;;29.40;57.80;;;;;;4973947;28;20925;-66
2022/08/15 13:40:23;;;;;;;2.30;2.10;;;29.30;57.70;;;;;;4974089;28;20412;-65
2022/08/15 13:42:49;;;;;;;2.17;2.07;;;29.20;58.30;;;;;;4973334;28;20188;-66
2022/08/15 13:45:17;;;;;;;2.23;2.03;;;29.00;58.00;;;;;;4973935;28;20932;-66
2022/08/15 13:47:44;;;;;;;2.87;2.57;;;29.00;58.10;;;;;;4974130;28;20394;-65
2022/08/15 13:50:10;;;;;;;2.07;1.97;;;29.10;57.90;;;;;;4974033;28;20944;-65
2022/08/15 13:52:37;;;;;;;3.10;2.83;;;29.10;58.30;;;;;;4976907;28;20445;-64
2022/08/15 13:55:04;;;;;;;2.20;1.80;;;29.20;58.40;;;;;;4977270;28;20428;-66
2022/08/15 13:57:30;;;;;;;2.03;1.93;;;29.20;58.90;;;;;;4977471;28;20742;-64
2022/08/15 13:59:56;;;;;;;2.23;2.13;;;29.30;58.50;;;;;;4978033;28;20411;-64
2022/08/15 14:02:22;;;;;;;2.20;2.00;;;29.30;57.50;;;;;;4977180;28;20184;-64
2022/08/15 14:04:48;;;;;;;2.10;2.00;;;29.30;57.30;;;;;;4977266;28;20975;-65
2022/08/15 14:07:15;;;;;;;2.30;2.10;;;29.20;57.70;;;;;;4977557;28;20226;-65
2022/08/15 14:09:41;;;;;;;2.33;2.23;;;29.20;57.90;;;;;;4976782;28;20438;-65
2022/08/15 14:12:08;;;;;;;2.17;2.00;;;29.30;57.50;;;;;;4977171;28;20797;-64
2022/08/15 14:14:34;;;;;;;2.23;2.13;;;29.40;56.70;;;;;;4976617;28;20857;-66
2022/08/15 14:17:00;;;;;;;2.67;1.70;;;29.40;56.90;;;;;;4977339;28;20382;-64
2022/08/15 14:19:28;;;;;;;6.83;2.40;;;29.60;56.70;;;;;;4976756;28;20421;-65
2022/08/15 14:21:53;;;;;;;2.57;2.37;;;29.80;56.20;;;;;;4977389;28;20814;-65
2022/08/15 14:24:19;;;;;;;2.13;2.03;;;30.00;56.20;;;;;;4975688;28;20542;-65
2022/08/15 14:26:49;;;;;;;2.27;2.10;;;30.20;56.10;;;;;;4976808;28;20180;-64
2022/08/15 14:29:36;;;;;;;2.00;1.90;;;30.30;55.70;;;;;;4976552;28;20183;-65
2022/08/15 14:32:02;;;;;;;2.70;2.50;;;30.30;56.10;;;;;;4976829;28;20410;-65
2022/08/15 14:34:28;;;;;;;2.17;2.07;;;30.20;56.50;;;;;;4975947;28;20426;-64
2022/08/15 14:36:55;;;;;;;2.13;2.03;;;30.10;56.70;;;;;;4976846;28;20749;-64
2022/08/15 14:39:22;;;;;;;2.57;2.37;;;29.90;56.70;;;;;;4976161;28;20271;-64
2022/08/15 14:41:47;;;;;;;2.70;2.50;;;29.80;56.70;;;;;;4976514;28;20458;-65
2022/08/15 14:44:15;;;;;;;2.87;2.67;;;29.70;57.10;;;;;;4976258;28;20461;-64
2022/08/15 14:46:42;;;;;;;2.43;2.33;;;29.40;57.00;;;;;;4976299;28;20551;-66
2022/08/15 14:49:08;;;;;;;2.80;2.60;;;29.10;57.80;;;;;;4976424;28;20433;-63
2022/08/15 14:51:37;;;;;;;2.73;2.47;;;28.80;59.40;;;;;;4976583;28;20428;-65
2022/08/15 14:54:05;;;;;;;2.60;2.30;;;28.40;60.00;;;;;;4975707;28;21027;-64
2022/08/15 14:56:31;;;;;;;2.70;2.30;;;28.10;60.20;;;;;;4976391;28;20538;-65
2022/08/15 14:58:58;;;;;;;2.10;2.00;;;27.80;60.60;;;;;;4976400;28;20579;-65
2022/08/15 15:01:24;;;;;;;2.67;2.13;;;27.50;61.40;;;;;;4975654;28;20417;-65
2022/08/15 15:03:52;;;;;;;2.90;2.70;;;27.30;62.00;;;;;;4975589;28;20494;-65
2022/08/15 15:06:23;;;;;;;2.57;2.37;;;27.10;66.10;;;;;;4976279;28;20410;-66
2022/08/15 15:08:51;;;;;;;2.33;2.23;;;26.80;69.20;;;;;;4975882;28;20415;-66
2022/08/15 15:11:17;;;;;;;5.57;2.30;;;26.40;69.80;;;;;;4957105;28;20402;-67
2022/08/15 15:13:44;;;;;;;1.90;1.80;;;26.00;70.40;;;;;;4955186;28;20979;-63
2022/08/15 15:16:13;;;;;;;1.80;1.70;;;25.60;71.60;;;;;;4975468;28;20427;-66
2022/08/15 15:18:42;;;;;;;2.70;2.50;;;25.20;72.50;;;;;;4975998;28;20426;-67
2022/08/15 15:21:08;;;;;;;5.53;2.37;;;24.80;73.70;;;;;;4975911;28;20962;-67
2022/08/15 15:23:36;;;;;;;2.57;2.37;;;24.50;76.20;;;;;;4975385;28;20461;-68
2022/08/15 15:26:02;;;;;;;2.90;2.70;;;24.30;77.00;;;;;;4975730;28;20413;-67
2022/08/15 15:28:30;;;;;;;4.70;2.43;;;24.00;77.90;;;;;;4976133;28;20470;-71
2022/08/15 15:30:58;;;;;;;4.50;2.03;;;23.80;79.60;;;;;;4975492;28;20409;-75
2022/08/15 15:33:25;;;;;;;4.50;2.10;;;23.60;80.90;;;;;;4975178;28;20490;-67
2022/08/15 15:35:51;;;;;;;4.40;2.47;;;23.50;82.30;;;;;;4975437;28;20911;-66
2022/08/15 15:38:17;;;;;;;2.73;2.53;;;23.40;83.50;;;;;;4975710;28;20489;-67
2022/08/15 15:40:43;;;;;;;2.53;2.33;;;23.30;84.40;;;;;;4975305;28;20194;-72
2022/08/15 15:43:08;;;;;;;1.90;1.80;;;23.10;85.20;;;;;;4974769;28;20189;-68
2022/08/15 15:45:34;;;;;;;1.50;1.40;;;23.10;86.00;;;;;;4975219;28;20263;-71
2022/08/15 15:48:01;;;;;;;1.50;1.40;;;23.00;86.10;;;;;;4975756;28;20180;-68
2022/08/15 15:50:27;;;;;;;3.50;2.13;;;23.00;86.90;;;;;;4975644;28;20409;-71
2022/08/15 15:53:03;;;;;;;2.37;1.80;;;22.90;87.40;;;;;;4974697;28;20462;-70
2022/08/15 15:55:30;;;;;;;1.60;1.50;;;22.70;88.00;;;;;;4974893;28;20444;-66
2022/08/15 15:57:56;;;;;;;1.67;1.57;;;22.70;88.20;;;;;;4975412;28;20920;-66
2022/08/15 16:00:23;;;;;;;1.57;1.47;;;22.60;88.60;;;;;;4975024;28;20931;-67
2022/08/15 16:02:51;;;;;;;1.50;1.40;;;22.50;89.70;;;;;;4974995;28;20386;-68
2022/08/15 16:05:22;;;;;;;1.60;1.50;;;22.40;90.20;;;;;;4974861;28;20461;-67
2022/08/15 16:07:48;;;;;;;1.77;1.67;;;22.40;90.30;;;;;;4975440;28;20440;-66
2022/08/15 16:10:29;;;;;;;1.97;1.73;;;22.30;90.50;;;;;;4974610;28;20429;-69
2022/08/15 16:12:58;;;;;;;1.60;1.50;;;22.20;90.80;;;;;;4974361;28;20458;-69
2022/08/15 16:15:35;;;;;;;1.90;1.80;;;22.20;90.70;;;;;;4974125;28;20494;-68
2022/08/15 16:18:11;;;;;;;1.50;1.40;;;22.20;90.80;;;;;;4973786;28;20435;-68
2022/08/15 16:20:40;;;;;;;2.70;1.93;;;22.20;91.00;;;;;;4974546;28;20438;-68
2022/08/15 16:23:39;;;;;;;1.97;1.87;;;22.20;91.60;;;;;;4974835;28;20408;-69
2022/08/15 16:26:30;;;;;;;1.93;1.80;;;22.20;91.40;;;;;;4974845;28;20451;-71
2022/08/15 16:29:10;;;;;;;1.70;1.60;;;22.40;90.50;;;;;;4974886;28;20412;-67
2022/08/15 16:31:52;;;;;;;2.07;1.87;;;22.40;90.00;;;;;;4974620;28;20423;-67
2022/08/15 16:34:32;;;;;;;5.40;2.20;;;22.50;90.80;;;;;;4974305;28;20474;-66
2022/08/15 16:37:05;;;;;;;2.20;2.00;;;22.70;92.70;;;;;;4955703;28;20461;-67
2022/08/15 16:39:57;;;;;;;2.47;2.00;;;22.80;93.60;;;;;;4955631;28;20417;-66
2022/08/15 16:42:31;;;;;;;2.43;2.23;;;22.80;94.30;;;;;;4947245;29;20439;-67
2022/08/15 16:44:59;;;;;;;1.90;1.80;;;22.80;93.80;;;;;;4967061;28;20439;-68
2022/08/15 16:47:35;;;;;;;2.37;2.17;;;22.80;94.00;;;;;;4974612;28;20445;-67
2022/08/15 16:50:07;;;;;;;2.00;1.80;;;22.80;94.10;;;;;;4974470;28;20405;-66
2022/08/15 16:52:45;;;;;;;2.87;2.07;;;22.90;94.10;;;;;;4973885;28;20613;-66
2022/08/15 16:55:27;;;;;;;1.80;1.70;;;22.90;94.00;;;;;;4974519;28;20458;-66
2022/08/15 16:58:11;;;;;;;2.23;2.03;;;23.00;93.90;;;;;;4974644;28;20412;-66
2022/08/15 17:00:49;;;;;;;1.80;1.70;;;23.00;93.50;;;;;;4974350;28;20399;-66
2022/08/15 17:03:29;;;;;;;1.93;1.77;;;23.10;93.50;;;;;;4972938;28;20469;-67
2022/08/15 17:06:07;;;;;;;1.83;1.70;;;23.10;93.60;;;;;;4973980;28;20530;-67
2022/08/15 17:09:00;;;;;;;1.40;1.30;;;23.10;94.20;;;;;;4972947;28;20924;-66
2022/08/15 17:11:50;;;;;;;9.53;2.40;;;23.10;94.00;;;;;;4958829;28;20491;-66
2022/08/15 17:14:32;;;;;;;2.50;2.10;;;23.20;93.30;;;;;;4973971;28;20469;-65
2022/08/15 17:17:11;;;;;;;2.00;1.77;;;23.10;93.90;;;;;;4973850;28;20475;-65
2022/08/15 17:19:48;;;;;;;1.97;1.87;;;23.00;91.20;;;;;;4974490;28;20435;-65
2022/08/15 17:22:33;;;;;;;2.70;2.50;;;23.00;90.90;;;;;;4973967;28;20427;-64
2022/08/15 17:25:19;;;;;;;2.37;2.17;;;23.00;93.10;;;;;;4974064;28;20497;-65
2022/08/15 17:27:49;;;;;;;2.63;1.70;;;23.00;93.90;;;;;;4978397;28;20416;-64
2022/08/15 17:30:19;;;;;;;1.93;1.67;;;22.90;94.50;;;;;;4976534;28;20468;-65
2022/08/15 17:33:01;;;;;;;2.10;1.50;;;22.90;95.00;;;;;;4977821;28;20426;-65
2022/08/15 17:35:26;;;;;;;2.87;2.10;;;22.80;95.40;;;;;;4977831;28;20482;-66
2022/08/15 17:37:53;;;;;;;1.90;1.77;;;22.70;96.40;;;;;;4977510;28;20791;-65